Texas Instruments Return on Investment 2006-2021 | TXN

Current and historical return on investment (ROI) values for Texas Instruments (TXN) over the last 10 years.
Texas Instruments ROI - Return on Investment Historical Data
Date TTM Net Income LT Investments & Debt Return on Investment
2021-06-30 $7.57B $16.91B 47.84%
2021-03-31 $6.59B $16.42B 43.70%
2020-12-31 $5.89B $15.44B 41.27%
2020-09-30 $5.33B $14.57B 38.14%
2020-06-30 $5.31B $13.89B 38.19%
2020-03-31 $5.59B $13.23B 40.81%
2019-12-31 $5.72B $14.21B 41.53%
2019-09-30 $5.99B $14.29B 44.19%
2019-06-30 $6.34B $13.04B 46.29%
2019-03-31 $6.54B $13.58B 45.58%
2018-12-31 $6.71B $13.31B 46.24%
2018-09-30 $6.76B $14.83B 46.09%
2018-06-30 $6.61B $15.70B 45.67%
2018-03-31 $6.38B $14.22B 45.57%
2017-12-31 $6.08B $13.91B 43.92%
2017-09-30 $5.85B $14.07B 42.61%
2017-06-30 $5.47B $13.79B 40.44%
2017-03-31 $5.12B $13.62B 38.47%
2016-12-31 $4.86B $13.45B 37.13%
2016-09-30 $4.71B $13.26B 36.31%
2016-06-30 $4.47B $12.94B 34.54%
2016-03-31 $4.35B $12.65B 33.34%
2015-12-31 $4.32B $13.07B 32.31%
2015-09-30 $4.23B $13.10B 31.08%
2015-06-30 $4.24B $13.34B 30.59%
2015-03-31 $4.22B $14.01B 29.58%
2014-12-31 $3.95B $14.02B 27.10%
2014-09-30 $3.53B $14.11B 23.87%
2014-06-30 $3.20B $14.86B 21.24%
2014-03-31 $3.13B $15.27B 20.61%
2013-12-31 $2.83B $14.97B 18.71%
2013-09-30 $2.28B $15.21B 15.04%
2013-06-30 $2.28B $15.23B 14.92%
2013-03-31 $1.97B $15.14B 13.20%
2012-12-31 $1.97B $15.15B 13.18%
2012-09-30 $2.20B $15.59B 14.69%
2012-06-30 $2.17B $13.86B 14.60%
2012-03-31 $2.48B $15.28B 16.52%
2011-12-31 $2.99B $15.16B 26.71%
2011-09-30 $3.86B $15.24B 52.05%
2011-06-30 $4.27B $14.40B 118.60%
2011-03-31 $4.47B inf%
2010-12-31 $4.51B inf%
2010-09-30 $4.16B inf%
2010-06-30 $3.70B inf%
2010-03-31 $2.93B inf%
2009-12-31 $1.99B inf%
2009-09-30 $1.17B inf%
2009-06-30 $1.15B inf%
2009-03-31 $1.64B inf%
2008-12-31 $2.44B inf%
2008-09-30 $3.38B inf%
2008-06-30 $3.65B inf%
2008-03-31 $3.62B inf%
2007-12-31 $3.50B inf%
2007-09-30 $3.27B inf%
2007-06-30 $3.19B inf%
2007-03-31 $3.33B inf%
2006-12-31 $3.37B 116.55%
2006-09-30 $3.36B 56.44%
2006-06-30 $3.19B 35.71%
2006-03-31 $2.84B $11.56B 24.04%
2005-12-31 $2.56B $12.27B 21.47%
Sector Industry Market Cap Revenue
Computer and Technology Semiconductor - General $181.180B $14.461B
Texas Instruments Incorporated (TI) is a global semiconductor design and manufacturing company that develops analog ICs and embedded processors. By employing the world's brightest minds, TI creates innovations that shape the future of technology. TI is helping approximately 100,000 customers transform the future, today. They produce TI DLP technology and education technology products. Analog products connect the physical and the digital worlds -turning signals like sound, pressure, temperature, humidity and light into digital 1s and 0s to be used by electronic devices - and translating that data back to information we interact with in the real world. Embedded processors are the processing brains of electronics that gather inputs from analog chips and perform computational processing to operate a system. TI DLP? technology powers a range of display and advanced light control applications spanning industrial, enterprise, automotive and consumer market segments, including projectors and cinema technology.
Stock Name Country Market Cap PE Ratio
NVIDIA (NVDA) United States $545.748B 75.00
Intel (INTC) United States $220.133B 10.24
STMicroelectronics (STM) Switzerland $41.789B 26.66
SUMCO CORP ADR (SUOPY) Japan $6.863B 29.20
Screen Holdings (DINRF) Japan $4.517B 23.04
Thk (THKLY) Japan $3.247B 606.50
Amtech Systems (ASYS) United States $0.178B 0.00